Time;durP1;ratioP1;P1;durP2;ratioP2;P2;SDS_P1;SDS_P2;PMS_P1;PMS_P2;Temp;Humidity;BMP_temperature;BMP_pressure;BME280_temperature;BME280_humidity;BME280_pressure;Samples;Min_cycle;Max_cycle;Signal;HPM_P1;HPM_P2
2022/12/30 06:33:46;;;;;;;17.50;9.80;;;;;;;0.60;100.00;99834.08;1841891;76;27311;-65
2022/12/30 06:36:13;;;;;;;13.60;10.58;;;;;;;0.89;100.00;99845.75;1817560;77;21442;-64
2022/12/30 06:38:40;;;;;;;13.78;10.30;;;;;;;1.08;100.00;99843.16;1817235;77;21873;-64
2022/12/30 06:45:08;;;;;;;14.60;10.00;;;;;;;1.35;100.00;99840.94;1696670;82;21769;-65
2022/12/30 06:47:39;;;;;;;14.00;9.98;;;;;;;1.53;100.00;99844.79;1696274;82;20997;-63
2022/12/30 06:50:07;;;;;;;11.18;9.38;;;;;;;1.65;100.00;99841.28;1691214;81;21682;-63
2022/12/30 06:52:34;;;;;;;13.05;10.05;;;;;;;1.77;100.00;99842.11;1694254;81;21780;-63
2022/12/30 06:55:00;;;;;;;14.90;9.73;;;;;;;1.87;100.00;99836.89;1689327;82;21012;-63
2022/12/30 06:57:28;;;;;;;13.72;9.50;;;;;;;1.99;100.00;99837.70;1690063;82;21533;-63
2022/12/30 06:59:55;;;;;;;12.20;9.45;;;;;;;2.09;100.00;99844.55;1696037;82;21623;-64
2022/12/30 07:02:22;;;;;;;11.78;9.15;;;;;;;2.18;100.00;99849.70;1700684;81;21549;-63
2022/12/30 07:04:49;;;;;;;;;;;;;;;2.28;100.00;99844.91;1698102;82;21675;-65
2022/12/30 07:07:17;;;;;;;12.45;8.83;;;;;;;2.31;100.00;99843.56;1697140;81;20501;-64
2022/12/30 07:09:44;;;;;;;12.30;9.43;;;;;;;2.43;100.00;99841.77;1667923;81;21578;-65
2022/12/30 07:12:11;;;;;;;11.50;9.23;;;;;;;2.50;100.00;99839.12;1696090;82;21627;-64
2022/12/30 07:15:49;;;;;;;9.83;8.33;;;;;;;2.58;100.00;99839.51;1663350;83;21641;-64
2022/12/30 07:18:16;;;;;;;12.93;9.05;;;;;;;2.69;100.00;99838.99;1672372;83;21810;-62
2022/12/30 07:20:43;;;;;;;12.05;8.60;;;;;;;2.76;100.00;99839.82;1667124;82;21552;-66
2022/12/30 07:23:10;;;;;;;12.20;9.20;;;;;;;2.80;100.00;99833.28;1670486;83;21158;-65
2022/12/30 07:25:38;;;;;;;11.50;9.28;;;;;;;2.91;100.00;99841.84;1672469;82;27098;-68
2022/12/30 07:28:05;;;;;;;10.82;8.60;;;;;;;3.00;100.00;99851.75;1692754;82;21032;-64
2022/12/30 07:30:54;;;;;;;11.60;9.50;;;;;;;3.07;100.00;99852.09;1663348;83;22236;-65
2022/12/30 07:33:20;;;;;;;15.15;9.10;;;;;;;3.09;100.00;99839.53;1576327;88;21646;-64
2022/12/30 07:35:47;;;;;;;13.20;9.43;;;;;;;3.16;100.00;99845.97;1628323;85;21640;-64
2022/12/30 07:38:16;;;;;;;11.30;8.75;;;;;;;3.25;100.00;99844.13;1629881;86;21589;-67
2022/12/30 07:40:43;;;;;;;10.63;8.78;;;;;;;3.34;100.00;99849.69;1609735;86;21597;-66
2022/12/30 07:43:11;;;;;;;10.82;8.58;;;;;;;3.42;100.00;99841.81;1629177;85;22011;-67
2022/12/30 07:45:39;;;;;;;12.65;9.93;;;;;;;3.50;100.00;99846.06;1602885;86;21562;-67
2022/12/30 07:48:07;;;;;;;11.53;9.38;;;;;;;3.59;100.00;99844.23;1632006;85;21608;-66
2022/12/30 07:50:38;;;;;;;11.95;8.90;;;;;;;3.64;100.00;99844.59;1604905;88;21768;-67
2022/12/30 07:53:07;;;;;;;11.43;8.85;;;;;;;3.70;100.00;99847.13;1627240;86;21601;-66
2022/12/30 07:55:40;;;;;;;13.70;9.28;;;;;;;3.75;100.00;99844.48;1630017;85;22146;-66
2022/12/30 07:58:12;;;;;;;12.53;9.68;;;;;;;3.77;100.00;99844.03;1671167;82;21541;-65
2022/12/30 08:00:40;;;;;;;11.15;9.18;;;;;;;3.79;100.00;99847.47;1680571;82;21493;-64
2022/12/30 08:03:08;;;;;;;12.88;9.75;;;;;;;3.87;100.00;99847.38;1700504;83;21565;-64
2022/12/30 08:05:35;;;;;;;13.25;8.83;;;;;;;3.92;100.00;99845.58;1698695;83;21014;-63
2022/12/30 08:08:05;;;;;;;11.57;9.30;;;;;;;3.97;100.00;99847.66;1695264;83;21901;-63
2022/12/30 08:10:32;;;;;;;12.43;8.75;;;;;;;3.99;100.00;99850.25;1691558;82;21604;-63
2022/12/30 08:12:59;;;;;;;12.17;10.00;;;;;;;4.02;100.00;99852.38;1690892;83;21726;-65
2022/12/30 08:15:27;;;;;;;12.37;8.73;;;;;;;4.02;100.00;99847.17;1696450;83;21438;-64
2022/12/30 08:17:54;;;;;;;13.70;9.60;;;;;;;4.03;100.00;99850.21;1699827;83;21092;-63
2022/12/30 08:20:21;;;;;;;12.88;9.53;;;;;;;4.07;100.00;99840.63;1699855;83;22494;-63
2022/12/30 08:22:48;;;;;;;9.88;8.73;;;;;;;4.07;100.00;99838.02;1697214;83;21073;-64
2022/12/30 08:25:17;;;;;;;12.30;8.78;;;;;;;4.09;100.00;99839.71;1690077;83;21595;-62
2022/12/30 08:27:44;;;;;;;14.03;9.00;;;;;;;4.16;100.00;99847.43;1696550;83;21620;-62
2022/12/30 08:30:14;;;;;;;10.53;9.05;;;;;;;4.21;100.00;99847.79;1666063;83;21607;-65
2022/12/30 08:32:41;;;;;;;13.15;9.28;;;;;;;4.28;100.00;99853.78;1662547;84;21891;-64
2022/12/30 08:35:09;;;;;;;11.75;8.48;;;;;;;4.32;100.00;99856.77;1690792;83;21572;-63
2022/12/30 08:37:36;;;;;;;12.37;9.45;;;;;;;4.37;100.00;99853.66;1694904;81;22192;-64
2022/12/30 08:40:04;;;;;;;12.05;9.10;;;;;;;4.43;100.00;99851.41;1667227;83;21521;-64
2022/12/30 08:42:31;;;;;;;12.50;8.78;;;;;;;4.48;100.00;99856.09;1696562;81;21443;-65
2022/12/30 08:44:59;;;;;;;10.43;8.78;;;;;;;4.55;100.00;99862.94;1665561;84;21901;-64
2022/12/30 08:47:25;;;;;;;13.05;9.65;;;;;;;4.57;100.00;99849.45;1697023;83;21953;-65
2022/12/30 08:49:53;;;;;;;14.65;8.95;;;;;;;4.57;100.00;99866.38;1694976;83;21602;-65
2022/12/30 08:52:21;;;;;;;11.10;8.30;;;;;;;4.61;100.00;99877.16;1686156;81;21659;-66
2022/12/30 08:54:48;;;;;;;9.48;8.00;;;;;;;4.62;100.00;99869.78;1699640;83;21510;-65
2022/12/30 08:57:17;;;;;;;11.97;8.68;;;;;;;4.58;100.00;99860.30;1697440;82;21894;-65
2022/12/30 09:00:08;;;;;;;10.43;8.68;;;;;;;4.55;100.00;99870.75;1670205;83;21449;-67
2022/12/30 09:02:38;;;;;;;12.20;8.45;;;;;;;4.56;100.00;99859.47;1640889;85;21693;-66
2022/12/30 09:05:05;;;;;;;10.30;8.28;;;;;;;4.58;100.00;99866.81;1610480;87;21098;-66
2022/12/30 09:07:32;;;;;;;9.65;8.40;;;;;;;4.66;100.00;99870.15;1640538;85;21449;-68
2022/12/30 09:10:21;;;;;;;9.95;7.95;;;;;;;4.71;100.00;99864.00;1639273;85;21815;-63
2022/12/30 09:12:49;;;;;;;9.88;8.03;;;;;;;4.80;100.00;99856.93;1592853;87;21513;-61
2022/12/30 09:15:16;;;;;;;12.73;10.18;;;;;;;4.95;100.00;99850.58;1596020;87;21495;-62
2022/12/30 09:17:43;;;;;;;10.15;9.10;;;;;;;5.03;100.00;99856.55;1590155;88;21534;-62
2022/12/30 16:12:34;;;;;;;22.37;15.63;;;;;;;2.42;100.00;99890.67;1778801;77;27179;-63
2022/12/30 16:15:12;;;;;;;20.12;14.78;;;;;;;2.70;100.00;99900.45;1748128;80;21580;-63
2022/12/30 16:17:59;;;;;;;23.73;16.17;;;;;;;2.90;100.00;99910.67;1760151;80;21836;-63
2022/12/30 16:21:01;;;;;;;21.45;14.87;;;;;;;3.05;100.00;99899.31;1742096;79;21639;-61
2022/12/30 16:23:49;;;;;;;19.70;14.45;;;;;;;3.17;100.00;99885.38;1762499;80;21531;-62
2022/12/30 16:26:29;;;;;;;22.27;15.35;;;;;;;3.30;100.00;99885.24;1719536;81;21582;-61
2022/12/30 16:29:16;;;;;;;29.30;15.85;;;;;;;3.44;100.00;99882.95;1674674;83;21537;-62
2022/12/30 16:31:47;;;;;;;21.48;13.98;;;;;;;3.57;100.00;99902.74;1656837;84;21900;-62
2022/12/30 16:34:14;;;;;;;16.97;12.28;;;;;;;3.64;100.00;99903.55;1661604;85;21569;-64
2022/12/30 16:36:41;;;;;;;17.00;12.43;;;;;;;3.70;100.00;99902.19;1658331;85;21503;-63
2022/12/30 16:39:08;;;;;;;16.05;11.83;;;;;;;3.81;100.00;99913.33;1663965;85;21553;-63
2022/12/30 16:41:36;;;;;;;14.95;11.55;;;;;;;3.93;100.00;99916.68;1668114;85;21546;-63
2022/12/30 16:44:13;;;;;;;15.70;12.07;;;;;;;4.00;100.00;99913.13;1659046;85;21815;-64
2022/12/30 16:46:40;;;;;;;14.68;11.00;;;;;;;4.07;100.00;99917.39;1660192;85;21538;-62
2022/12/30 16:49:07;;;;;;;14.43;10.30;;;;;;;4.12;100.00;99918.17;1658510;85;21586;-61
2022/12/30 16:51:41;;;;;;;15.83;11.55;;;;;;;4.19;100.00;99913.32;1661597;85;21587;-62
2022/12/30 16:54:14;;;;;;;17.77;12.23;;;;;;;4.24;100.00;99910.23;1665667;85;21491;-62
2022/12/30 16:56:41;;;;;;;16.52;12.43;;;;;;;4.27;100.00;99897.60;1656922;85;21777;-62
2022/12/30 16:59:10;;;;;;;14.58;11.53;;;;;;;4.32;100.00;99902.32;1666621;85;21596;-62
2022/12/30 17:01:40;;;;;;;20.90;12.88;;;;;;;4.34;100.00;99917.92;1662185;85;21582;-62
2022/12/30 17:04:09;;;;;;;18.92;12.58;;;;;;;4.34;100.00;99921.83;1661475;84;21514;-63
2022/12/30 17:06:36;;;;;;;17.82;13.32;;;;;;;4.38;100.00;99927.41;1667990;85;21517;-63
2022/12/30 17:09:04;;;;;;;19.37;13.38;;;;;;;4.35;100.00;99930.92;1661353;85;21609;-63
2022/12/30 17:11:32;;;;;;;19.98;14.23;;;;;;;4.39;100.00;99938.23;1663643;85;21329;-62
2022/12/30 17:14:01;;;;;;;16.42;12.73;;;;;;;4.34;100.00;99937.00;1661040;85;21585;-63
2022/12/30 17:16:33;;;;;;;18.32;13.98;;;;;;;4.32;100.00;99940.06;1667254;85;21550;-63
2022/12/30 17:19:01;;;;;;;16.62;12.50;;;;;;;4.32;100.00;99937.91;1659356;85;21770;-63
2022/12/30 17:21:36;;;;;;;;;;;;;;;4.36;100.00;99937.84;1661396;85;21514;-62
2022/12/30 17:24:49;;;;;;;18.80;12.82;;;;;;;4.31;100.00;99937.03;1673274;80;20884;-61
2022/12/30 17:27:26;;;;;;;15.45;11.75;;;;;;;4.36;100.00;99935.69;1747746;79;21573;-63
2022/12/30 17:29:53;;;;;;;15.90;11.55;;;;;;;4.36;100.00;99940.44;1746831;79;21573;-59
2022/12/30 17:32:33;;;;;;;15.50;12.63;;;;;;;4.38;100.00;99936.08;1729163;79;20950;-59
2022/12/30 17:35:00;;;;;;;17.45;12.18;;;;;;;4.40;100.00;99936.06;1747612;79;22198;-60
2022/12/30 17:37:26;;;;;;;17.27;12.03;;;;;;;4.45;100.00;99939.02;1694621;79;21426;-61
2022/12/30 17:39:53;;;;;;;18.32;12.55;;;;;;;4.49;100.00;99943.30;1740179;80;21524;-59
2022/12/30 17:42:20;;;;;;;13.70;11.43;;;;;;;4.58;100.00;99941.03;1725803;80;21469;-62
2022/12/30 17:44:48;;;;;;;;;;;;;;;4.62;100.00;99945.31;1746461;79;20935;-62
2022/12/30 17:47:14;;;;;;;17.67;12.80;;;;;;;4.58;100.00;99941.03;1692513;81;21821;-62
2022/12/30 17:49:41;;;;;;;16.95;13.80;;;;;;;4.64;100.00;99944.84;1705260;81;21573;-64
2022/12/30 17:52:08;;;;;;;16.20;12.03;;;;;;;4.62;100.00;99941.41;1708312;81;21060;-62
2022/12/30 17:54:35;;;;;;;18.77;12.98;;;;;;;4.65;100.00;99945.28;1741772;79;21693;-62
2022/12/30 17:57:02;;;;;;;16.30;12.63;;;;;;;4.71;100.00;99944.75;1748556;79;21703;-61
2022/12/30 17:59:29;;;;;;;17.40;12.78;;;;;;;4.72;100.00;99949.09;1733665;79;21830;-60
2022/12/30 18:01:56;;;;;;;17.02;12.30;;;;;;;4.75;100.00;99947.31;1740263;79;21564;-61
2022/12/30 18:06:48;;;;;;;16.77;13.28;;;;;;;4.59;100.00;99932.77;1819965;75;27368;-64
2022/12/30 18:09:15;;;;;;;18.40;13.48;;;;;;;4.67;100.00;99944.81;1773800;78;21564;-63
2022/12/30 18:11:42;;;;;;;19.25;13.68;;;;;;;4.63;100.00;99942.25;1788796;77;21576;-62
2022/12/30 18:14:09;;;;;;;17.48;13.40;;;;;;;4.61;100.00;99951.84;1810542;78;21561;-62
2022/12/30 18:16:36;;;;;;;15.80;11.73;;;;;;;4.65;100.00;99942.67;1761711;80;21544;-66
2022/12/30 18:19:04;;;;;;;14.47;11.20;;;;;;;4.71;100.00;99943.45;1736042;81;21070;-63
2022/12/30 18:21:31;;;;;;;14.75;11.85;;;;;;;4.73;100.00;99937.36;1761710;79;21511;-64
2022/12/30 18:24:00;;;;;;;15.75;10.48;;;;;;;4.79;100.00;99942.92;1769088;80;21851;-63
2022/12/30 18:26:27;;;;;;;12.47;10.15;;;;;;;4.80;100.00;99945.51;1766688;79;21447;-64
2022/12/30 18:28:53;;;;;;;13.43;10.70;;;;;;;4.80;100.00;99944.62;1804327;78;21473;-63
2022/12/30 18:31:27;;;;;;;13.05;10.30;;;;;;;4.81;100.00;99943.75;1799466;78;21431;-62
2022/12/30 18:33:54;;;;;;;17.05;11.00;;;;;;;4.82;100.00;99948.06;1806842;78;21500;-63
2022/12/30 18:36:23;;;;;;;15.03;12.07;;;;;;;4.84;100.00;99951.51;1771881;79;22189;-63
2022/12/30 18:38:50;;;;;;;13.20;10.20;;;;;;;4.90;100.00;99947.53;1768068;80;21502;-64
2022/12/30 18:41:19;;;;;;;12.65;10.48;;;;;;;4.93;100.00;99950.08;1798612;78;21442;-65
2022/12/30 18:43:47;;;;;;;12.40;9.45;;;;;;;4.94;100.00;99947.90;1756291;80;21478;-63
2022/12/30 18:46:20;;;;;;;16.10;10.63;;;;;;;4.92;100.00;99951.42;1805437;78;21005;-63
2022/12/30 18:48:50;;;;;;;12.63;10.03;;;;;;;4.89;100.00;99956.22;1764639;80;21454;-66
2022/12/30 18:51:17;;;;;;;12.82;9.50;;;;;;;4.91;100.00;99953.59;1761928;80;21424;-63
2022/12/30 18:53:45;;;;;;;16.27;10.55;;;;;;;4.91;100.00;99956.20;1770529;80;21577;-64
2022/12/30 18:56:15;;;;;;;15.90;11.20;;;;;;;4.93;100.00;99963.55;1807747;78;21506;-62
2022/12/30 18:58:42;;;;;;;13.95;10.53;;;;;;;4.90;100.00;99970.98;1808590;78;21497;-61
2022/12/30 19:01:16;;;;;;;17.15;11.08;;;;;;;4.91;100.00;99968.78;1768349;80;21804;-62
2022/12/30 19:03:43;;;;;;;12.65;10.72;;;;;;;4.92;100.00;99968.36;1767744;80;21520;-69
2022/12/30 19:06:09;;;;;;;12.00;10.00;;;;;;;4.90;100.00;99965.77;1750312;80;21608;-69
2022/12/30 19:08:39;;;;;;;16.23;11.25;;;;;;;4.90;100.00;99972.70;1766082;79;21646;-68
2022/12/30 19:11:10;;;;;;;13.35;10.05;;;;;;;4.86;100.00;99975.83;1742525;81;21562;-67
2022/12/30 19:13:38;;;;;;;12.23;9.43;;;;;;;4.91;100.00;99981.81;1747237;80;21438;-67
2022/12/30 19:16:11;;;;;;;11.07;9.57;;;;;;;4.95;100.00;99983.93;1761924;79;21506;-67
2022/12/30 19:18:39;;;;;;;12.20;9.48;;;;;;;4.96;100.00;99984.36;1759897;79;21333;-67
2022/12/30 19:21:09;;;;;;;11.40;10.20;;;;;;;5.04;100.00;99989.86;1775211;80;21518;-67
2022/12/30 19:23:36;;;;;;;13.88;10.65;;;;;;;5.10;100.00;99991.52;1755782;79;21029;-69
2022/12/30 19:26:03;;;;;;;11.75;9.15;;;;;;;5.10;100.00;99989.36;1804468;78;22268;-66
2022/12/30 19:28:31;;;;;;;13.77;9.33;;;;;;;5.18;100.00;99986.19;1759769;79;21543;-66
2022/12/30 19:30:58;;;;;;;12.33;9.13;;;;;;;5.19;100.00;99987.92;1798593;78;21470;-60
2022/12/30 19:33:25;;;;;;;11.97;9.50;;;;;;;5.14;100.00;99991.92;1787687;78;21481;-65
2022/12/30 19:35:52;;;;;;;12.80;9.83;;;;;;;5.10;100.00;99992.83;1797348;78;21530;-65
2022/12/30 19:38:19;;;;;;;14.25;10.55;;;;;;;5.10;100.00;99990.22;1770105;80;21776;-65
2022/12/30 19:40:46;;;;;;;13.60;10.58;;;;;;;5.03;100.00;99992.07;1800764;78;21469;-65
2022/12/30 19:43:13;;;;;;;10.10;8.98;;;;;;;4.98;100.00;100000.84;1797969;77;21651;-66
2022/12/30 19:45:41;;;;;;;10.25;9.10;;;;;;;5.07;100.00;100009.38;1760260;79;21502;-66
2022/12/30 19:48:09;;;;;;;11.53;9.27;;;;;;;5.06;100.00;100007.64;1767956;80;21636;-64
2022/12/30 19:50:35;;;;;;;12.95;9.75;;;;;;;5.10;100.00;100011.52;1762317;80;21788;-65
2022/12/30 19:53:02;;;;;;;11.10;8.85;;;;;;;5.09;100.00;100011.97;1797014;78;21667;-64
2022/12/30 19:55:28;;;;;;;10.85;8.75;;;;;;;5.09;100.00;100017.19;1802700;78;21544;-64
2022/12/30 19:57:55;;;;;;;10.93;8.53;;;;;;;5.04;100.00;100016.37;1764845;80;21446;-64
2022/12/30 20:00:22;;;;;;;11.53;8.75;;;;;;;5.04;100.00;100026.35;1764617;79;21119;-64
2022/12/30 20:02:49;;;;;;;11.30;8.95;;;;;;;5.04;100.00;100023.75;1757235;79;22107;-65
2022/12/30 20:05:18;;;;;;;10.28;8.60;;;;;;;5.06;100.00;100029.80;1786805;78;21077;-65
2022/12/30 20:07:46;;;;;;;13.88;9.70;;;;;;;5.07;100.00;100032.84;1799883;78;21091;-65
2022/12/30 20:10:13;;;;;;;12.17;8.40;;;;;;;5.15;100.00;100030.57;1800369;78;21568;-65
2022/12/30 20:12:40;;;;;;;14.05;8.50;;;;;;;5.19;100.00;100030.94;1796531;77;21601;-64
2022/12/30 20:15:09;;;;;;;9.63;7.90;;;;;;;5.24;100.00;100039.11;1797960;77;21636;-65
2022/12/30 20:17:36;;;;;;;12.82;9.95;;;;;;;5.24;100.00;100040.87;1796129;78;21471;-67
2022/12/30 20:20:05;;;;;;;10.32;7.75;;;;;;;5.16;100.00;100044.01;1796298;78;21526;-67
2022/12/30 20:22:32;;;;;;;11.38;8.30;;;;;;;5.24;100.00;100046.94;1790577;78;21514;-67
2022/12/30 20:24:58;;;;;;;10.03;8.43;;;;;;;5.22;100.00;100038.73;1751082;79;21029;-68
2022/12/30 20:27:25;;;;;;;13.22;8.68;;;;;;;5.24;100.00;100046.94;1805403;78;21781;-67
2022/12/30 20:29:51;;;;;;;14.15;9.20;;;;;;;5.25;100.00;100053.00;1760927;80;21403;-67
2022/12/30 20:32:19;;;;;;;13.58;9.75;;;;;;;5.31;100.00;100055.51;1795362;78;21068;-68
2022/12/30 20:34:46;;;;;;;12.25;8.48;;;;;;;5.29;100.00;100053.82;1761318;79;22124;-67
2022/12/30 20:37:13;;;;;;;12.33;9.90;;;;;;;5.28;100.00;100064.70;1747088;79;21825;-68
2022/12/30 20:39:41;;;;;;;12.25;9.65;;;;;;;5.24;100.00;100063.03;1787018;78;21931;-67
2022/12/30 20:42:08;;;;;;;12.90;10.00;;;;;;;5.19;100.00;100064.37;1763389;79;21499;-67
2022/12/30 20:44:35;;;;;;;12.82;9.78;;;;;;;5.14;100.00;100067.94;1768699;79;20970;-69
2022/12/30 20:47:02;;;;;;;12.95;9.48;;;;;;;5.05;100.00;100074.16;1757905;78;21516;-68
2022/12/30 20:49:29;;;;;;;11.12;9.23;;;;;;;4.95;100.00;100075.98;1770420;79;21473;-68
2022/12/30 20:52:01;;;;;;;13.03;9.18;;;;;;;4.88;100.00;100087.40;1768244;79;21748;-68
2022/12/30 20:54:28;;;;;;;11.65;9.45;;;;;;;4.92;100.00;100089.08;1762238;79;21626;-70
2022/12/30 20:56:55;;;;;;;12.05;8.93;;;;;;;4.91;100.00;100095.61;1766275;80;21684;-69
2022/12/30 20:59:22;;;;;;;11.78;9.13;;;;;;;4.95;100.00;100098.14;1793668;78;21476;-69
2022/12/30 21:01:51;;;;;;;12.80;9.43;;;;;;;4.95;100.00;100102.05;1799454;78;21596;-69
2022/12/30 21:04:19;;;;;;;12.10;9.90;;;;;;;4.94;100.00;100093.83;1805448;78;21810;-69
2022/12/30 21:06:47;;;;;;;11.53;9.43;;;;;;;4.97;100.00;100096.83;1802935;77;21529;-69
2022/12/30 21:09:19;;;;;;;12.43;10.13;;;;;;;5.02;100.00;100104.16;1792647;77;21571;-69
2022/12/30 21:11:45;;;;;;;12.40;9.18;;;;;;;4.99;100.00;100106.38;1795040;78;21471;-69
2022/12/30 21:14:14;;;;;;;12.00;9.28;;;;;;;5.05;100.00;100106.73;1763829;79;21614;-68
2022/12/30 21:16:41;;;;;;;11.63;8.45;;;;;;;5.05;100.00;100110.64;1783252;77;22203;-68
2022/12/30 21:19:08;;;;;;;9.58;8.35;;;;;;;5.08;100.00;100113.19;1797739;77;21616;-69
2022/12/30 21:21:35;;;;;;;10.70;8.37;;;;;;;5.09;100.00;100113.62;1805728;78;21450;-68
2022/12/30 21:24:02;;;;;;;11.73;9.08;;;;;;;5.05;100.00;100113.25;1771496;79;21631;-68
2022/12/30 21:26:31;;;;;;;10.07;8.30;;;;;;;4.99;100.00;100113.30;1800841;78;21947;-68
2022/12/30 21:28:58;;;;;;;12.13;9.10;;;;;;;4.94;100.00;100116.43;1761123;79;21776;-68
2022/12/30 21:31:28;;;;;;;12.25;8.43;;;;;;;4.91;100.00;100125.58;1764881;80;21490;-69
2022/12/30 21:33:56;;;;;;;11.48;9.00;;;;;;;4.94;100.00;100122.49;1764429;80;21500;-68
2022/12/30 21:36:24;;;;;;;11.78;8.28;;;;;;;4.93;100.00;100127.27;1745265;81;21552;-63
2022/12/30 22:04:33;;;;;;;10.35;8.18;;;;;;;4.87;100.00;100158.63;1743939;81;21525;-68
2022/12/30 22:07:00;;;;;;;10.38;7.80;;;;;;;4.86;100.00;100160.82;1747351;81;21054;-68
2022/12/30 22:09:27;;;;;;;10.65;8.38;;;;;;;4.88;100.00;100161.21;1750119;81;21788;-68
2022/12/30 22:11:53;;;;;;;9.13;7.53;;;;;;;4.86;100.00;100168.64;1741052;81;21543;-69
2022/12/30 22:14:21;;;;;;;12.60;8.63;;;;;;;4.87;100.00;100169.05;1737272;81;21514;-68
2022/12/30 22:16:48;;;;;;;8.83;7.83;;;;;;;4.91;100.00;100176.39;1748772;81;20978;-69
2022/12/30 22:19:15;;;;;;;9.35;7.42;;;;;;;4.85;100.00;100170.36;1747190;81;21514;-68
2022/12/30 22:21:41;;;;;;;10.60;7.80;;;;;;;4.86;100.00;100174.70;1740583;81;21513;-68
2022/12/30 22:24:08;;;;;;;10.58;7.92;;;;;;;4.87;100.00;100179.47;1752561;81;21599;-68
2022/12/30 22:26:35;;;;;;;11.87;8.03;;;;;;;4.91;100.00;100181.16;1747498;80;21529;-68
2022/12/30 22:29:02;;;;;;;9.65;8.00;;;;;;;4.93;100.00;100182.00;1741538;81;21581;-69
2022/12/30 22:31:29;;;;;;;11.63;8.70;;;;;;;4.90;100.00;100192.89;1738926;81;21603;-69
2022/12/30 22:33:55;;;;;;;10.53;8.08;;;;;;;4.87;100.00;100187.28;1746758;81;21493;-68
2022/12/30 22:36:22;;;;;;;9.35;7.65;;;;;;;4.84;100.00;100195.12;1744128;81;20990;-68
2022/12/30 22:38:48;;;;;;;11.80;8.65;;;;;;;4.84;100.00;100199.03;1745577;81;21609;-69
2022/12/30 22:41:15;;;;;;;11.45;8.90;;;;;;;4.80;100.00;100202.55;1748566;81;21501;-69
2022/12/30 22:43:42;;;;;;;10.72;8.85;;;;;;;4.81;100.00;100197.78;1752866;81;22246;-69
2022/12/30 22:46:11;;;;;;;10.95;8.85;;;;;;;4.80;100.00;100199.53;1754337;79;22001;-68
2022/12/30 22:48:39;;;;;;;11.05;8.75;;;;;;;4.77;100.00;100209.97;1750618;81;21545;-68
2022/12/30 22:51:12;;;;;;;12.33;9.10;;;;;;;4.75;100.00;100201.76;1741869;81;21569;-69
2022/12/30 22:53:39;;;;;;;14.47;8.95;;;;;;;4.68;100.00;100210.91;1747358;80;21564;-69
2022/12/30 22:56:06;;;;;;;12.18;9.18;;;;;;;4.65;100.00;100220.49;1747991;81;21191;-67
2022/12/30 22:58:34;;;;;;;12.07;8.88;;;;;;;4.59;100.00;100225.32;1743302;81;27702;-67
2022/12/30 23:01:01;;;;;;;;;;;;;;;4.57;100.00;100227.08;1747976;80;21527;-66
2022/12/30 23:03:27;;;;;;;11.03;9.10;;;;;;;4.46;100.00;100225.89;1740925;81;20409;-67
2022/12/30 23:05:54;;;;;;;15.53;10.13;;;;;;;4.43;100.00;100229.81;1745376;81;22270;-69
2022/12/30 23:08:21;;;;;;;13.40;9.48;;;;;;;4.42;100.00;100235.03;1745490;80;21399;-67
2022/12/30 23:10:48;;;;;;;11.60;9.10;;;;;;;4.41;100.00;100235.92;1750978;81;21802;-67
2022/12/30 23:16:06;;;;;;;11.00;8.20;;;;;;;4.35;100.00;100232.05;1742742;81;21569;-66
2022/12/30 23:18:36;;;;;;;14.63;9.60;;;;;;;4.32;100.00;100238.59;1746021;81;21522;-66
2022/12/30 23:21:15;;;;;;;15.78;9.18;;;;;;;4.31;100.00;100248.56;1751220;81;21973;-66
2022/12/30 23:26:31;;;;;;;11.55;8.50;;;;;;;4.29;100.00;100249.46;1754214;81;21009;-66
2022/12/30 23:28:58;;;;;;;9.18;7.78;;;;;;;4.20;100.00;100250.83;1742358;81;21598;-66
2022/12/30 23:31:26;;;;;;;13.53;9.15;;;;;;;4.24;100.00;100250.37;1744133;81;21517;-66
2022/12/30 23:33:53;;;;;;;14.73;8.78;;;;;;;4.24;100.00;100255.58;1746202;81;21426;-66
2022/12/30 23:36:20;;;;;;;12.33;9.30;;;;;;;4.24;100.00;100253.83;1736606;81;21576;-67
2022/12/30 23:38:47;;;;;;;11.50;8.78;;;;;;;4.22;100.00;100249.08;1737174;81;21515;-66
2022/12/30 23:41:15;;;;;;;9.03;8.05;;;;;;;4.15;100.00;100247.38;1742597;81;21450;-66
2022/12/30 23:43:42;;;;;;;13.40;9.60;;;;;;;4.14;100.00;100254.75;1747400;80;21552;-66
2022/12/30 23:46:11;;;;;;;11.73;8.83;;;;;;;4.15;100.00;100260.84;1746014;81;21784;-67
2022/12/30 23:48:38;;;;;;;12.47;8.65;;;;;;;4.16;100.00;100264.71;1728895;81;21808;-66
2022/12/30 23:51:13;;;;;;;11.50;9.47;;;;;;;4.15;100.00;100271.25;1756866;80;21068;-66
2022/12/30 23:53:40;;;;;;;13.68;9.28;;;;;;;4.15;100.00;100279.92;1778615;79;21646;-66
2022/12/30 23:56:14;;;;;;;11.35;8.93;;;;;;;4.13;100.00;100276.46;1777935;79;21526;-66
2022/12/30 23:58:41;;;;;;;14.18;10.08;;;;;;;4.12;100.00;100279.92;1773073;79;21107;-66
